sensor_id;sensor_type;location;lat;lon;timestamp;pressure;altitude;pressure_sealevel;temperature;humidity
23433;BME280;41331;45.412;10.992;2022-12-29T00:01:01;101659.69;;;7.55;100.00
23433;BME280;41331;45.412;10.992;2022-12-29T00:03:29;101659.69;;;7.49;100.00
23433;BME280;41331;45.412;10.992;2022-12-29T00:05:57;101656.41;;;7.52;100.00
23433;BME280;41331;45.412;10.992;2022-12-29T00:08:25;101643.13;;;7.56;100.00
23433;BME280;41331;45.412;10.992;2022-12-29T00:11:10;101640.97;;;7.58;100.00
23433;BME280;41331;45.412;10.992;2022-12-29T00:13:38;101626.88;;;7.56;100.00
23433;BME280;41331;45.412;10.992;2022-12-29T00:16:26;101629.28;;;7.58;100.00
23433;BME280;41331;45.412;10.992;2022-12-29T00:18:53;101636.38;;;7.53;100.00
23433;BME280;41331;45.412;10.992;2022-12-29T00:21:22;101633.44;;;7.45;100.00
23433;BME280;41331;45.412;10.992;2022-12-29T00:24:17;101638.28;;;7.53;100.00
23433;BME280;41331;45.412;10.992;2022-12-29T00:26:58;101639.13;;;7.48;100.00
23433;BME280;41331;45.412;10.992;2022-12-29T00:29:53;101647.78;;;7.50;100.00
23433;BME280;41331;45.412;10.992;2022-12-29T00:32:39;101646.69;;;7.46;100.00
23433;BME280;41331;45.412;10.992;2022-12-29T00:35:31;101645.84;;;7.56;100.00
23433;BME280;41331;45.412;10.992;2022-12-29T00:38:03;101638.56;;;7.46;100.00
23433;BME280;41331;45.412;10.992;2022-12-29T00:40:51;101624.56;;;7.34;100.00
23433;BME280;41331;45.412;10.992;2022-12-29T00:43:37;101618.88;;;7.31;100.00
23433;BME280;41331;45.412;10.992;2022-12-29T00:46:23;101632.13;;;7.32;100.00
23433;BME280;41331;45.412;10.992;2022-12-29T00:48:50;101629.72;;;7.25;100.00
23433;BME280;41331;45.412;10.992;2022-12-29T00:51:36;101624.88;;;7.17;100.00
23433;BME280;41331;45.412;10.992;2022-12-29T00:54:04;101637.03;;;7.25;100.00
23433;BME280;41331;45.412;10.992;2022-12-29T00:56:31;101635.13;;;7.31;100.00
23433;BME280;41331;45.412;10.992;2022-12-29T00:59:05;101632.69;;;7.34;100.00
23433;BME280;41331;45.412;10.992;2022-12-29T01:01:35;101633.78;;;7.33;100.00
23433;BME280;41331;45.412;10.992;2022-12-29T01:04:04;101631.88;;;7.34;100.00
23433;BME280;41331;45.412;10.992;2022-12-29T01:06:33;101629.41;;;7.32;100.00
23433;BME280;41331;45.412;10.992;2022-12-29T01:09:01;101629.19;;;7.23;100.00
23433;BME280;41331;45.412;10.992;2022-12-29T01:11:47;101627.31;;;7.19;100.00
23433;BME280;41331;45.412;10.992;2022-12-29T01:14:15;101633.00;;;7.17;100.00
23433;BME280;41331;45.412;10.992;2022-12-29T01:16:44;101633.00;;;7.17;100.00
23433;BME280;41331;45.412;10.992;2022-12-29T01:19:13;101637.84;;;7.25;100.00
23433;BME280;41331;45.412;10.992;2022-12-29T01:21:41;101643.81;;;7.22;100.00
23433;BME280;41331;45.412;10.992;2022-12-29T01:24:08;101639.75;;;7.25;100.00
23433;BME280;41331;45.412;10.992;2022-12-29T01:26:36;101640.00;;;7.34;100.00
23433;BME280;41331;45.412;10.992;2022-12-29T01:29:03;101645.13;;;7.35;100.00
23433;BME280;41331;45.412;10.992;2022-12-29T01:31:31;101635.63;;;7.38;100.00
23433;BME280;41331;45.412;10.992;2022-12-29T01:33:58;101634.28;;;7.35;100.00
23433;BME280;41331;45.412;10.992;2022-12-29T01:36:26;101627.78;;;7.36;100.00
23433;BME280;41331;45.412;10.992;2022-12-29T01:38:53;101633.47;;;7.40;100.00
23433;BME280;41331;45.412;10.992;2022-12-29T01:41:21;101642.41;;;7.40;100.00
23433;BME280;41331;45.412;10.992;2022-12-29T01:43:54;101638.31;;;7.43;100.00
23433;BME280;41331;45.412;10.992;2022-12-29T01:49:19;101650.47;;;7.50;100.00
23433;BME280;41331;45.412;10.992;2022-12-29T01:51:53;101651.56;;;7.49;100.00
23433;BME280;41331;45.412;10.992;2022-12-29T01:54:27;101661.06;;;7.47;100.00
23433;BME280;41331;45.412;10.992;2022-12-29T01:56:57;101659.16;;;7.42;100.00
23433;BME280;41331;45.412;10.992;2022-12-29T01:59:30;101657.84;;;7.40;100.00
23433;BME280;41331;45.412;10.992;2022-12-29T02:01:59;101642.69;;;7.39;100.00
23433;BME280;41331;45.412;10.992;2022-12-29T02:04:30;101641.84;;;7.43;100.00
23433;BME280;41331;45.412;10.992;2022-12-29T02:07:05;101630.47;;;7.41;100.00
23433;BME280;41331;45.412;10.992;2022-12-29T02:09:35;101629.13;;;7.39;100.00
23433;BME280;41331;45.412;10.992;2022-12-29T02:12:03;101626.94;;;7.41;100.00
23433;BME280;41331;45.412;10.992;2022-12-29T02:14:30;101615.56;;;7.44;100.00
23433;BME280;41331;45.412;10.992;2022-12-29T02:37:48;101604.50;;;7.35;100.00
23433;BME280;41331;45.412;10.992;2022-12-29T02:45:22;101610.78;;;7.25;100.00
23433;BME280;41331;45.412;10.992;2022-12-29T02:48:41;101624.31;;;7.20;100.00
23433;BME280;41331;45.412;10.992;2022-12-29T02:51:15;101615.13;;;7.16;100.00
23433;BME280;41331;45.412;10.992;2022-12-29T02:54:03;101605.41;;;7.10;100.00
23433;BME280;41331;45.412;10.992;2022-12-29T02:56:49;101600.25;;;7.14;100.00
23433;BME280;41331;45.412;10.992;2022-12-29T02:59:17;101596.22;;;7.06;100.00
23433;BME280;41331;45.412;10.992;2022-12-29T03:02:10;101598.13;;;7.06;100.00
23433;BME280;41331;45.412;10.992;2022-12-29T03:05:22;101587.03;;;7.02;100.00
23433;BME280;41331;45.412;10.992;2022-12-29T03:10:47;101587.81;;;7.03;100.00
23433;BME280;41331;45.412;10.992;2022-12-29T03:16:32;101587.84;;;6.97;100.00
23433;BME280;41331;45.412;10.992;2022-12-29T03:21:54;101595.69;;;7.04;100.00
23433;BME280;41331;45.412;10.992;2022-12-29T03:24:47;101601.38;;;7.03;100.00
23433;BME280;41331;45.412;10.992;2022-12-29T03:27:31;101599.50;;;6.98;100.00
23433;BME280;41331;45.412;10.992;2022-12-29T03:30:03;101594.09;;;6.98;100.00
23433;BME280;41331;45.412;10.992;2022-12-29T03:32:34;101587.84;;;6.97;100.00
23433;BME280;41331;45.412;10.992;2022-12-29T03:35:05;101579.47;;;7.04;100.00
23433;BME280;41331;45.412;10.992;2022-12-29T03:37:39;101567.25;;;7.07;100.00
23433;BME280;41331;45.412;10.992;2022-12-29T03:40:08;101572.63;;;7.12;100.00
23433;BME280;41331;45.412;10.992;2022-12-29T03:42:38;101572.09;;;7.15;100.00
23433;BME280;41331;45.412;10.992;2022-12-29T03:45:08;101573.22;;;7.09;100.00
23433;BME280;41331;45.412;10.992;2022-12-29T03:47:37;101571.56;;;7.08;100.00
23433;BME280;41331;45.412;10.992;2022-12-29T03:50:05;101567.81;;;7.09;100.00
23433;BME280;41331;45.412;10.992;2022-12-29T03:52:36;101558.28;;;7.11;100.00
23433;BME280;41331;45.412;10.992;2022-12-29T03:55:04;101562.38;;;7.14;100.00
23433;BME280;41331;45.412;10.992;2022-12-29T03:57:32;101573.47;;;7.07;100.00
23433;BME280;41331;45.412;10.992;2022-12-29T04:00:05;101568.31;;;7.11;100.00
23433;BME280;41331;45.412;10.992;2022-12-29T04:02:41;101576.69;;;7.19;100.00
23433;BME280;41331;45.412;10.992;2022-12-29T04:05:14;101575.91;;;7.14;100.00
23433;BME280;41331;45.412;10.992;2022-12-29T04:07:42;101576.41;;;7.16;100.00
23433;BME280;41331;45.412;10.992;2022-12-29T04:10:09;101577.75;;;7.23;100.00
23433;BME280;41331;45.412;10.992;2022-12-29T04:12:37;101577.44;;;7.30;100.00
23433;BME280;41331;45.412;10.992;2022-12-29T04:15:05;101579.34;;;7.30;100.00
23433;BME280;41331;45.412;10.992;2022-12-29T04:17:33;101574.16;;;7.38;100.00
23433;BME280;41331;45.412;10.992;2022-12-29T04:20:02;101574.38;;;7.42;100.00
23433;BME280;41331;45.412;10.992;2022-12-29T04:22:49;101579.28;;;7.40;100.00
23433;BME280;41331;45.412;10.992;2022-12-29T04:25:24;101573.88;;;7.40;100.00
23433;BME280;41331;45.412;10.992;2022-12-29T04:27:52;101577.09;;;7.42;100.00
23433;BME280;41331;45.412;10.992;2022-12-29T04:30:38;101585.81;;;7.39;100.00
23433;BME280;41331;45.412;10.992;2022-12-29T04:33:13;101593.09;;;7.43;100.00
23433;BME280;41331;45.412;10.992;2022-12-29T04:35:42;101586.06;;;7.37;100.00
23433;BME280;41331;45.412;10.992;2022-12-29T04:38:11;101573.59;;;7.41;100.00
23433;BME280;41331;45.412;10.992;2022-12-29T04:40:40;101569.78;;;7.42;100.00
23433;BME280;41331;45.412;10.992;2022-12-29T04:43:10;101567.09;;;7.37;100.00
23433;BME280;41331;45.412;10.992;2022-12-29T04:46:09;101568.47;;;7.35;100.00
23433;BME280;41331;45.412;10.992;2022-12-29T04:49:02;101573.63;;;7.31;100.00
23433;BME280;41331;45.412;10.992;2022-12-29T04:51:54;101576.66;;;7.24;100.00
23433;BME280;41331;45.412;10.992;2022-12-29T04:54:22;101579.09;;;7.26;100.00
23433;BME280;41331;45.412;10.992;2022-12-29T04:56:58;101570.44;;;7.24;100.00
23433;BME280;41331;45.412;10.992;2022-12-29T04:59:25;101581.53;;;7.22;100.00
23433;BME280;41331;45.412;10.992;2022-12-29T05:01:56;101586.94;;;7.22;100.00
23433;BME280;41331;45.412;10.992;2022-12-29T05:04:24;101589.66;;;7.22;100.00
23433;BME280;41331;45.412;10.992;2022-12-29T05:06:52;101584.00;;;7.19;100.00
23433;BME280;41331;45.412;10.992;2022-12-29T05:09:20;101567.69;;;7.34;100.00
23433;BME280;41331;45.412;10.992;2022-12-29T05:11:47;101566.03;;;7.38;100.00
23433;BME280;41331;45.412;10.992;2022-12-29T05:14:14;101565.16;;;7.43;100.00
23433;BME280;41331;45.412;10.992;2022-12-29T05:16:45;101566.59;;;7.35;100.00
23433;BME280;41331;45.412;10.992;2022-12-29T05:19:12;101566.31;;;7.32;100.00
23433;BME280;41331;45.412;10.992;2022-12-29T05:21:40;101568.28;;;7.21;100.00
23433;BME280;41331;45.412;10.992;2022-12-29T05:24:08;101578.56;;;7.24;100.00
23433;BME280;41331;45.412;10.992;2022-12-29T05:26:35;101588.88;;;7.12;100.00
23433;BME280;41331;45.412;10.992;2022-12-29T05:29:21;101592.69;;;7.11;100.00
23433;BME280;41331;45.412;10.992;2022-12-29T05:31:49;101592.69;;;7.11;100.00
23433;BME280;41331;45.412;10.992;2022-12-29T05:34:16;101591.06;;;7.10;100.00
23433;BME280;41331;45.412;10.992;2022-12-29T05:36:44;101600.00;;;7.05;100.00
23433;BME280;41331;45.412;10.992;2022-12-29T05:39:13;101598.91;;;7.06;100.00
23433;BME280;41331;45.412;10.992;2022-12-29T05:41:43;101589.47;;;7.04;100.00
23433;BME280;41331;45.412;10.992;2022-12-29T05:44:29;101584.34;;;6.97;100.00
23433;BME280;41331;45.412;10.992;2022-12-29T05:47:22;101584.59;;;7.00;100.00
23433;BME280;41331;45.412;10.992;2022-12-29T05:50:02;101585.72;;;6.94;100.00
23433;BME280;41331;45.412;10.992;2022-12-29T05:52:50;101583.03;;;6.84;100.00
23433;BME280;41331;45.412;10.992;2022-12-29T05:55:18;101601.41;;;6.92;100.00
23433;BME280;41331;45.412;10.992;2022-12-29T05:57:48;101601.13;;;6.99;100.00
23433;BME280;41331;45.412;10.992;2022-12-29T06:00:17;101591.66;;;6.91;100.00
23433;BME280;41331;45.412;10.992;2022-12-29T06:02:46;101581.66;;;6.92;100.00
23433;BME280;41331;45.412;10.992;2022-12-29T06:05:16;101589.75;;;6.92;100.00
23433;BME280;41331;45.412;10.992;2022-12-29T06:07:43;101587.03;;;6.97;100.00
23433;BME280;41331;45.412;10.992;2022-12-29T06:10:14;101593.84;;;6.94;100.00
23433;BME280;41331;45.412;10.992;2022-12-29T06:12:46;101580.84;;;6.86;100.00
23433;BME280;41331;45.412;10.992;2022-12-29T06:15:14;101584.16;;;6.78;100.00
23433;BME280;41331;45.412;10.992;2022-12-29T06:17:44;101584.97;;;6.73;100.00
23433;BME280;41331;45.412;10.992;2022-12-29T06:20:11;101592.28;;;6.73;100.00
23433;BME280;41331;45.412;10.992;2022-12-29T06:22:39;101592.53;;;6.71;100.00
23433;BME280;41331;45.412;10.992;2022-12-29T06:25:07;101590.38;;;6.68;100.00
23433;BME280;41331;45.412;10.992;2022-12-29T06:27:35;101581.19;;;6.69;100.00
23433;BME280;41331;45.412;10.992;2022-12-29T06:30:03;101577.91;;;6.72;100.00
23433;BME280;41331;45.412;10.992;2022-12-29T06:32:31;101581.47;;;6.68;100.00
23433;BME280;41331;45.412;10.992;2022-12-29T06:35:04;101572.28;;;6.59;100.00
23433;BME280;41331;45.412;10.992;2022-12-29T06:37:37;101570.09;;;6.61;100.00
23433;BME280;41331;45.412;10.992;2022-12-29T06:40:05;101569.56;;;6.59;100.00
23433;BME280;41331;45.412;10.992;2022-12-29T06:42:48;101577.13;;;6.62;100.00
23433;BME280;41331;45.412;10.992;2022-12-29T06:45:32;101581.47;;;6.63;100.00
23433;BME280;41331;45.412;10.992;2022-12-29T06:48:00;101575.53;;;6.56;100.00
23433;BME280;41331;45.412;10.992;2022-12-29T06:50:27;101577.41;;;6.65;100.00
23433;BME280;41331;45.412;10.992;2022-12-29T06:52:54;101584.16;;;6.73;100.00
23433;BME280;41331;45.412;10.992;2022-12-29T06:55:22;101582.50;;;6.77;100.00
23433;BME280;41331;45.412;10.992;2022-12-29T06:57:49;101579.75;;;6.92;100.00
23433;BME280;41331;45.412;10.992;2022-12-29T07:00:17;101584.34;;;6.97;100.00
23433;BME280;41331;45.412;10.992;2022-12-29T07:02:49;101585.44;;;6.96;100.00
23433;BME280;41331;45.412;10.992;2022-12-29T07:05:17;101590.31;;;6.99;100.00
23433;BME280;41331;45.412;10.992;2022-12-29T07:07:45;101586.81;;;6.93;100.00
23433;BME280;41331;45.412;10.992;2022-12-29T07:10:12;101589.53;;;6.88;100.00
23433;BME280;41331;45.412;10.992;2022-12-29T07:12:40;101584.66;;;6.85;100.00
23433;BME280;41331;45.412;10.992;2022-12-29T07:15:07;101584.91;;;6.89;100.00
23433;BME280;41331;45.412;10.992;2022-12-29T07:17:35;101593.28;;;6.92;100.00
23433;BME280;41331;45.412;10.992;2022-12-29T07:20:02;101578.91;;;6.97;100.00
23433;BME280;41331;45.412;10.992;2022-12-29T07:22:30;101579.72;;;7.03;100.00
23433;BME280;41331;45.412;10.992;2022-12-29T07:24:57;101593.22;;;7.08;100.00
23433;BME280;41331;45.412;10.992;2022-12-29T07:27:25;101601.91;;;7.05;100.00
23433;BME280;41331;45.412;10.992;2022-12-29T07:29:52;101612.44;;;7.16;100.00
23433;BME280;41331;45.412;10.992;2022-12-29T07:32:19;101607.00;;;7.16;100.00
23433;BME280;41331;45.412;10.992;2022-12-29T07:34:47;101608.94;;;7.11;100.00
23433;BME280;41331;45.412;10.992;2022-12-29T07:37:15;101602.16;;;7.13;100.00
23433;BME280;41331;45.412;10.992;2022-12-29T07:39:43;101593.22;;;7.13;100.00
23433;BME280;41331;45.412;10.992;2022-12-29T07:42:11;101586.16;;;7.17;100.00
23433;BME280;41331;45.412;10.992;2022-12-29T07:44:42;101580.75;;;7.17;100.00
23433;BME280;41331;45.412;10.992;2022-12-29T07:47:26;101584.00;;;7.19;100.00
23433;BME280;41331;45.412;10.992;2022-12-29T07:49:53;101593.69;;;7.30;100.00
23433;BME280;41331;45.412;10.992;2022-12-29T07:52:21;101604.22;;;7.37;100.00
23433;BME280;41331;45.412;10.992;2022-12-29T07:54:48;101612.09;;;7.38;100.00
23433;BME280;41331;45.412;10.992;2022-12-29T07:57:16;101604.44;;;7.45;100.00
23433;BME280;41331;45.412;10.992;2022-12-29T07:59:43;101614.16;;;7.51;100.00
23433;BME280;41331;45.412;10.992;2022-12-29T08:02:11;101626.16;;;7.40;100.00
23433;BME280;41331;45.412;10.992;2022-12-29T08:04:39;101627.75;;;7.41;100.00
23433;BME280;41331;45.412;10.992;2022-12-29T08:07:06;101623.94;;;7.42;100.00
23433;BME280;41331;45.412;10.992;2022-12-29T08:09:34;101618.78;;;7.51;100.00
23433;BME280;41331;45.412;10.992;2022-12-29T08:12:01;101633.41;;;7.50;100.00
23433;BME280;41331;45.412;10.992;2022-12-29T08:14:29;101629.34;;;7.47;100.00
23433;BME280;41331;45.412;10.992;2022-12-29T08:16:56;101628.28;;;7.48;100.00
23433;BME280;41331;45.412;10.992;2022-12-29T08:19:23;101621.47;;;7.51;100.00
23433;BME280;41331;45.412;10.992;2022-12-29T08:21:52;101631.53;;;7.45;100.00
23433;BME280;41331;45.412;10.992;2022-12-29T08:24:20;101625.56;;;7.53;100.00
23433;BME280;41331;45.412;10.992;2022-12-29T08:26:47;101642.63;;;7.49;100.00
23433;BME280;41331;45.412;10.992;2022-12-29T08:29:14;101638.28;;;7.53;100.00
23433;BME280;41331;45.412;10.992;2022-12-29T08:31:43;101648.28;;;7.52;100.00
23433;BME280;41331;45.412;10.992;2022-12-29T08:34:10;101651.00;;;7.52;100.00
23433;BME280;41331;45.412;10.992;2022-12-29T08:36:38;101648.56;;;7.56;100.00
23433;BME280;41331;45.412;10.992;2022-12-29T08:39:05;101655.84;;;7.61;100.00
23433;BME280;41331;45.412;10.992;2022-12-29T08:41:33;101661.84;;;7.52;100.00
23433;BME280;41331;45.412;10.992;2022-12-29T08:44:00;101670.50;;;7.60;100.00
23433;BME280;41331;45.412;10.992;2022-12-29T08:46:46;101665.06;;;7.60;100.00
23433;BME280;41331;45.412;10.992;2022-12-29T08:49:14;101674.56;;;7.57;100.00
23433;BME280;41331;45.412;10.992;2022-12-29T08:51:41;101671.59;;;7.59;100.00
23433;BME280;41331;45.412;10.992;2022-12-29T08:54:09;101664.50;;;7.63;100.00
23433;BME280;41331;45.412;10.992;2022-12-29T08:56:36;101667.75;;;7.65;100.00
23433;BME280;41331;45.412;10.992;2022-12-29T08:59:04;101676.41;;;7.67;100.00
23433;BME280;41331;45.412;10.992;2022-12-29T09:01:32;101675.84;;;7.70;100.00
23433;BME280;41331;45.412;10.992;2022-12-29T09:04:00;101681.00;;;7.66;100.00
23433;BME280;41331;45.412;10.992;2022-12-29T09:06:45;101665.53;;;7.72;100.00
23433;BME280;41331;45.412;10.992;2022-12-29T09:09:12;101667.69;;;7.75;100.00
23433;BME280;41331;45.412;10.992;2022-12-29T09:11:40;101657.91;;;7.84;100.00
23433;BME280;41331;45.412;10.992;2022-12-29T09:14:08;101644.34;;;7.84;100.00
23433;BME280;41331;45.412;10.992;2022-12-29T09:16:36;101650.31;;;7.81;100.00
23433;BME280;41331;45.412;10.992;2022-12-29T09:19:04;101657.63;;;7.81;100.00
23433;BME280;41331;45.412;10.992;2022-12-29T09:21:31;101666.09;;;7.74;100.00
23433;BME280;41331;45.412;10.992;2022-12-29T09:23:59;101668.50;;;7.75;100.00
23433;BME280;41331;45.412;10.992;2022-12-29T09:26:26;101669.59;;;7.74;100.00
23433;BME280;41331;45.412;10.992;2022-12-29T09:28:54;101655.47;;;7.77;100.00
23433;BME280;41331;45.412;10.992;2022-12-29T09:31:21;101657.59;;;7.86;100.00
23433;BME280;41331;45.412;10.992;2022-12-29T09:33:49;101657.31;;;7.87;100.00
23433;BME280;41331;45.412;10.992;2022-12-29T09:36:16;101658.31;;;8.01;100.00
23433;BME280;41331;45.412;10.992;2022-12-29T09:38:44;101659.59;;;8.14;100.00
23433;BME280;41331;45.412;10.992;2022-12-29T09:41:20;101657.69;;;8.15;100.00
23433;BME280;41331;45.412;10.992;2022-12-29T09:44:14;101649.81;;;8.18;100.00
23433;BME280;41331;45.412;10.992;2022-12-29T09:46:47;101649.94;;;7.98;100.00
23433;BME280;41331;45.412;10.992;2022-12-29T09:49:26;101646.19;;;7.94;100.00
23433;BME280;41331;45.412;10.992;2022-12-29T09:52:23;101654.06;;;7.90;100.00
23433;BME280;41331;45.412;10.992;2022-12-29T09:55:19;101652.13;;;7.96;100.00
23433;BME280;41331;45.412;10.992;2022-12-29T09:57:54;101654.28;;;7.99;100.00
23433;BME280;41331;45.412;10.992;2022-12-29T10:00:58;101666.47;;;8.01;100.00
23433;BME280;41331;45.412;10.992;2022-12-29T10:06:24;101652.31;;;8.10;100.00
23433;BME280;41331;45.412;10.992;2022-12-29T10:09:11;101648.97;;;8.18;100.00
23433;BME280;41331;45.412;10.992;2022-12-29T10:14:57;101650.66;;;8.14;100.00
23433;BME280;41331;45.412;10.992;2022-12-29T10:17:38;101631.78;;;8.38;100.00
23433;BME280;41331;45.412;10.992;2022-12-29T10:20:38;101634.59;;;8.86;100.00
23433;BME280;41331;45.412;10.992;2022-12-29T10:23:26;101641.53;;;9.21;100.00
23433;BME280;41331;45.412;10.992;2022-12-29T10:25:57;101627.41;;;9.43;100.00
23433;BME280;41331;45.412;10.992;2022-12-29T10:28:48;101614.63;;;9.24;100.00
23433;BME280;41331;45.412;10.992;2022-12-29T10:31:40;101625.88;;;9.37;100.00
23433;BME280;41331;45.412;10.992;2022-12-29T10:34:28;101618.06;;;9.30;100.00
23433;BME280;41331;45.412;10.992;2022-12-29T10:40:03;101599.31;;;9.28;100.00
23433;BME280;41331;45.412;10.992;2022-12-29T10:42:45;101593.19;;;9.42;100.00
23433;BME280;41331;45.412;10.992;2022-12-29T10:45:15;101590.47;;;9.42;100.00
23433;BME280;41331;45.412;10.992;2022-12-29T10:48:12;101595.09;;;9.41;100.00
23433;BME280;41331;45.412;10.992;2022-12-29T10:50:45;101587.75;;;9.42;100.00
23433;BME280;41331;45.412;10.992;2022-12-29T10:53:20;101584.09;;;9.51;100.00
23433;BME280;41331;45.412;10.992;2022-12-29T10:55:50;101587.63;;;9.52;100.00
23433;BME280;41331;45.412;10.992;2022-12-29T10:58:18;101589.50;;;9.32;100.00
23433;BME280;41331;45.412;10.992;2022-12-29T11:00:52;101591.97;;;9.72;100.00
23433;BME280;41331;45.412;10.992;2022-12-29T11:06:13;101584.44;;;9.82;100.00
23433;BME280;41331;45.412;10.992;2022-12-29T11:09:08;101586.38;;;9.82;100.00
23433;BME280;41331;45.412;10.992;2022-12-29T11:11:37;101583.50;;;9.73;100.00
23433;BME280;41331;45.412;10.992;2022-12-29T11:14:14;101579.09;;;9.40;100.00
23433;BME280;41331;45.412;10.992;2022-12-29T11:16:56;101564.78;;;9.53;100.00
23433;BME280;41331;45.412;10.992;2022-12-29T11:19:26;101564.50;;;9.54;100.00
23433;BME280;41331;45.412;10.992;2022-12-29T11:21:54;101563.25;;;9.66;100.00
23433;BME280;41331;45.412;10.992;2022-12-29T11:24:25;101571.00;;;9.72;100.00
23433;BME280;41331;45.412;10.992;2022-12-29T11:26:55;101569.09;;;9.73;100.00
23433;BME280;41331;45.412;10.992;2022-12-29T11:29:38;101574.84;;;9.71;100.00
23433;BME280;41331;45.412;10.992;2022-12-29T11:32:26;101577.13;;;9.64;100.00
23433;BME280;41331;45.412;10.992;2022-12-29T11:34:56;101569.97;;;9.68;100.00
23433;BME280;41331;45.412;10.992;2022-12-29T11:37:36;101572.28;;;9.80;100.00
23433;BME280;41331;45.412;10.992;2022-12-29T11:40:20;101566.16;;;9.88;100.00
23433;BME280;41331;45.412;10.992;2022-12-29T11:42:53;101569.91;;;9.73;100.00
23433;BME280;41331;45.412;10.992;2022-12-29T11:45:27;101560.53;;;9.66;100.00
23433;BME280;41331;45.412;10.992;2022-12-29T11:48:01;101551.63;;;9.60;100.00
23433;BME280;41331;45.412;10.992;2022-12-29T11:50:34;101556.41;;;9.49;100.00
23433;BME280;41331;45.412;10.992;2022-12-29T11:55:35;101564.97;;;9.19;100.00
23433;BME280;41331;45.412;10.992;2022-12-29T11:58:04;101570.41;;;9.19;100.00
23433;BME280;41331;45.412;10.992;2022-12-29T12:00:34;101569.50;;;9.04;100.00
23433;BME280;41331;45.412;10.992;2022-12-29T12:05:45;101560.94;;;8.92;100.00
23433;BME280;41331;45.412;10.992;2022-12-29T12:08:31;101560.88;;;8.97;100.00
23433;BME280;41331;45.412;10.992;2022-12-29T12:11:23;101552.97;;;9.01;100.00
23433;BME280;41331;45.412;10.992;2022-12-29T12:14:14;101548.72;;;8.95;100.00
23433;BME280;41331;45.412;10.992;2022-12-29T12:17:10;101525.97;;;9.10;100.00
23433;BME280;41331;45.412;10.992;2022-12-29T12:22:53;101498.16;;;9.18;100.00
23433;BME280;41331;45.412;10.992;2022-12-29T12:25:31;101502.19;;;9.01;100.00
23433;BME280;41331;45.412;10.992;2022-12-29T12:28:18;101503.44;;;9.09;100.00
23433;BME280;41331;45.412;10.992;2022-12-29T12:30:50;101514.22;;;8.95;100.00
23433;BME280;41331;45.412;10.992;2022-12-29T12:38:57;101527.72;;;8.76;100.00
23433;BME280;41331;45.412;10.992;2022-12-29T12:52:40;101551.00;;;8.82;100.00
23433;BME280;41331;45.412;10.992;2022-12-29T13:01:28;101517.28;;;8.89;100.00
23433;BME280;41331;45.412;10.992;2022-12-29T13:04:32;101511.38;;;8.81;100.00
23433;BME280;41331;45.412;10.992;2022-12-29T13:12:39;101523.72;;;8.74;100.00
23433;BME280;41331;45.412;10.992;2022-12-29T13:15:11;101527.22;;;8.74;100.00
23433;BME280;41331;45.412;10.992;2022-12-29T13:20:43;101552.03;;;8.63;100.00
23433;BME280;41331;45.412;10.992;2022-12-29T13:23:31;101541.41;;;8.66;100.00
23433;BME280;41331;45.412;10.992;2022-12-29T13:26:11;101527.66;;;8.57;100.00
23433;BME280;41331;45.412;10.992;2022-12-29T13:31:56;101503.72;;;8.65;100.00
23433;BME280;41331;45.412;10.992;2022-12-29T13:37:34;101515.22;;;8.56;100.00
23433;BME280;41331;45.412;10.992;2022-12-29T13:40:19;101514.34;;;8.61;100.00
23433;BME280;41331;45.412;10.992;2022-12-29T13:42:48;101516.69;;;8.68;100.00
23433;BME280;41331;45.412;10.992;2022-12-29T13:45:20;101513.13;;;8.72;100.00
23433;BME280;41331;45.412;10.992;2022-12-29T13:47:57;101511.81;;;8.70;100.00
23433;BME280;41331;45.412;10.992;2022-12-29T13:50:29;101498.25;;;8.70;100.00
23433;BME280;41331;45.412;10.992;2022-12-29T13:53:24;101501.53;;;8.67;100.00
23433;BME280;41331;45.412;10.992;2022-12-29T13:56:00;101487.50;;;8.60;100.00
23433;BME280;41331;45.412;10.992;2022-12-29T14:01:16;101482.34;;;8.58;100.00
23433;BME280;41331;45.412;10.992;2022-12-29T14:03:56;101483.50;;;8.52;100.00
23433;BME280;41331;45.412;10.992;2022-12-29T14:06:32;101491.44;;;8.48;100.00
23433;BME280;41331;45.412;10.992;2022-12-29T14:09:05;101498.22;;;8.46;100.00
23433;BME280;41331;45.412;10.992;2022-12-29T14:11:35;101504.53;;;8.41;100.00
23433;BME280;41331;45.412;10.992;2022-12-29T14:14:13;101504.81;;;8.40;100.00
23433;BME280;41331;45.412;10.992;2022-12-29T14:16:41;101499.66;;;8.38;100.00
23433;BME280;41331;45.412;10.992;2022-12-29T14:19:17;101495.31;;;8.37;100.00
23433;BME280;41331;45.412;10.992;2022-12-29T14:22:25;101490.72;;;8.38;100.00
23433;BME280;41331;45.412;10.992;2022-12-29T14:24:59;101489.91;;;8.37;100.00
23433;BME280;41331;45.412;10.992;2022-12-29T14:29:55;101487.75;;;8.34;100.00
23433;BME280;41331;45.412;10.992;2022-12-29T14:34:55;101491.81;;;8.37;100.00
23433;BME280;41331;45.412;10.992;2022-12-29T14:37:36;101491.00;;;8.36;100.00
23433;BME280;41331;45.412;10.992;2022-12-29T14:40:18;101487.72;;;8.39;100.00
23433;BME280;41331;45.412;10.992;2022-12-29T14:42:47;101491.50;;;8.38;100.00
23433;BME280;41331;45.412;10.992;2022-12-29T14:47:47;101505.94;;;8.34;100.00
23433;BME280;41331;45.412;10.992;2022-12-29T14:57:44;101493.78;;;8.26;100.00
23433;BME280;41331;45.412;10.992;2022-12-29T15:00:25;101488.38;;;8.26;100.00
23433;BME280;41331;45.412;10.992;2022-12-29T15:03:04;101486.72;;;8.30;100.00
23433;BME280;41331;45.412;10.992;2022-12-29T15:05:46;101485.03;;;8.34;100.00
23433;BME280;41331;45.412;10.992;2022-12-29T15:08:18;101479.84;;;8.38;100.00